Briscoe, Texas
Current Conditions -  °F | °C
As of 2:15 AM on Friday 31 Oct 2014 (Local Time) from KHHF Reporting Station
Clear Clear  
Wind Chill: 40°   Ceiling: Unl
Heat Index: 40°   Visibility: NA
Dew Point: 34°   Wind: 0mph
Humidity: 79%   Direction: NA
Pressure: 30.36"   Gusts: NA
Location:  35.58°N, 100.29°W
Report Text: KHHF 310715Z AUTO 00000KT CLR 04/01 A3036 RMK AO2 T00440010 PWINO
Loading
Personal Weather Stations






























Interactive Weather Map New forecast layout! Learn more

10-Day Weather Forecast

Advertisements
Track Severe Weather on mobile